sensor_id;sensor_type;location;lat;lon;timestamp;pressure;altitude;pressure_sealevel;temperature;humidity
8253;BME280;61313;48.396;10.008;2024-01-16T00:01:05;95547.88;;;0.79;54.90
8253;BME280;61313;48.396;10.008;2024-01-16T00:03:31;95548.00;;;0.73;55.74
8253;BME280;61313;48.396;10.008;2024-01-16T00:05:56;95549.00;;;0.66;55.16
8253;BME280;61313;48.396;10.008;2024-01-16T00:08:22;95555.91;;;0.63;55.20
8253;BME280;61313;48.396;10.008;2024-01-16T00:10:47;95554.06;;;0.70;55.36
8253;BME280;61313;48.396;10.008;2024-01-16T00:13:13;95562.66;;;0.71;54.65
8253;BME280;61313;48.396;10.008;2024-01-16T00:15:38;95554.97;;;0.68;55.37
8253;BME280;61313;48.396;10.008;2024-01-16T00:18:07;95549.03;;;0.64;54.85
8253;BME280;61313;48.396;10.008;2024-01-16T00:20:33;95549.91;;;0.63;55.24
8253;BME280;61313;48.396;10.008;2024-01-16T00:22:59;95550.06;;;0.55;54.93
8253;BME280;61313;48.396;10.008;2024-01-16T00:25:25;95553.16;;;0.73;54.80
8253;BME280;61313;48.396;10.008;2024-01-16T00:27:51;95553.53;;;0.53;54.82
8253;BME280;61313;48.396;10.008;2024-01-16T00:30:16;95550.31;;;0.41;55.50
8253;BME280;61313;48.396;10.008;2024-01-16T00:32:42;95560.63;;;0.40;54.78
8253;BME280;61313;48.396;10.008;2024-01-16T00:35:07;95558.06;;;0.40;55.30
8253;BME280;61313;48.396;10.008;2024-01-16T00:37:35;95553.78;;;0.40;54.57
8253;BME280;61313;48.396;10.008;2024-01-16T00:40:00;95553.03;;;0.32;54.99
8253;BME280;61313;48.396;10.008;2024-01-16T00:42:26;95556.59;;;0.25;54.81
8253;BME280;61313;48.396;10.008;2024-01-16T00:44:52;95561.63;;;0.34;55.26
8253;BME280;61313;48.396;10.008;2024-01-16T00:47:17;95565.03;;;0.35;55.36
8253;BME280;61313;48.396;10.008;2024-01-16T00:49:42;95565.13;;;0.30;55.92
8253;BME280;61313;48.396;10.008;2024-01-16T00:52:08;95563.34;;;0.34;54.92
8253;BME280;61313;48.396;10.008;2024-01-16T00:54:33;95567.94;;;0.16;56.02
8253;BME280;61313;48.396;10.008;2024-01-16T00:56:58;95566.25;;;0.15;55.83
8253;BME280;61313;48.396;10.008;2024-01-16T00:59:27;95569.78;;;0.10;55.60
8253;BME280;61313;48.396;10.008;2024-01-16T01:01:53;95577.59;;;0.04;55.67
8253;BME280;61313;48.396;10.008;2024-01-16T01:04:18;95580.06;;;0.11;56.00
8253;BME280;61313;48.396;10.008;2024-01-16T01:06:44;95579.22;;;0.09;55.51
8253;BME280;61313;48.396;10.008;2024-01-16T01:09:09;95578.44;;;0.04;56.00
8253;BME280;61313;48.396;10.008;2024-01-16T01:11:37;95582.00;;;-0.03;55.92
8253;BME280;61313;48.396;10.008;2024-01-16T01:14:03;95590.34;;;0.14;55.20
8253;BME280;61313;48.396;10.008;2024-01-16T01:16:29;95594.94;;;-0.05;55.90
8253;BME280;61313;48.396;10.008;2024-01-16T01:18:54;95599.28;;;-0.08;56.07
8253;BME280;61313;48.396;10.008;2024-01-16T01:21:19;95602.78;;;-0.12;55.50
8253;BME280;61313;48.396;10.008;2024-01-16T01:23:45;95598.19;;;-0.52;56.05
8253;BME280;61313;48.396;10.008;2024-01-16T01:26:10;95604.75;;;-0.28;55.83
8253;BME280;61313;48.396;10.008;2024-01-16T01:28:39;95598.84;;;-0.36;55.98
8253;BME280;61313;48.396;10.008;2024-01-16T01:31:05;95610.88;;;-0.37;56.46
8253;BME280;61313;48.396;10.008;2024-01-16T01:33:30;95618.66;;;-0.40;55.90
8253;BME280;61313;48.396;10.008;2024-01-16T01:35:56;95611.78;;;-0.41;55.78
8253;BME280;61313;48.396;10.008;2024-01-16T01:38:21;95604.94;;;-0.42;56.09
8253;BME280;61313;48.396;10.008;2024-01-16T01:40:46;95615.06;;;-0.30;56.02
8253;BME280;61313;48.396;10.008;2024-01-16T01:43:22;95618.56;;;-0.34;55.52
8253;BME280;61313;48.396;10.008;2024-01-16T01:48:33;95620.47;;;-0.48;55.81
8253;BME280;61313;48.396;10.008;2024-01-16T01:50:59;95625.09;;;-0.73;57.18
8253;BME280;61313;48.396;10.008;2024-01-16T01:53:25;95619.06;;;-0.71;56.93
8253;BME280;61313;48.396;10.008;2024-01-16T01:55:51;95613.03;;;-0.70;56.71
8253;BME280;61313;48.396;10.008;2024-01-16T01:58:16;95616.22;;;-0.52;55.80
8253;BME280;61313;48.396;10.008;2024-01-16T02:00:42;95607.47;;;-0.40;55.77
8253;BME280;61313;48.396;10.008;2024-01-16T02:03:07;95607.28;;;-0.27;55.38
8253;BME280;61313;48.396;10.008;2024-01-16T02:05:33;95608.94;;;-0.21;55.63
8253;BME280;61313;48.396;10.008;2024-01-16T02:07:58;95609.97;;;-0.33;55.22
8253;BME280;61313;48.396;10.008;2024-01-16T02:10:25;95611.84;;;-0.44;55.77
8253;BME280;61313;48.396;10.008;2024-01-16T02:12:51;95612.63;;;-0.37;55.96
8253;BME280;61313;48.396;10.008;2024-01-16T02:15:16;95616.28;;;-0.57;56.05
8253;BME280;61313;48.396;10.008;2024-01-16T02:17:42;95613.72;;;-0.57;56.31
8253;BME280;61313;48.396;10.008;2024-01-16T02:20:07;95619.75;;;-0.59;56.50
8253;BME280;61313;48.396;10.008;2024-01-16T02:22:33;95615.56;;;-0.67;57.24
8253;BME280;61313;48.396;10.008;2024-01-16T02:25:00;95610.34;;;-0.60;56.77
8253;BME280;61313;48.396;10.008;2024-01-16T02:27:25;95616.41;;;-0.65;56.52
8253;BME280;61313;48.396;10.008;2024-01-16T02:29:51;95612.00;;;-0.56;56.18
8253;BME280;61313;48.396;10.008;2024-01-16T02:32:16;95606.75;;;-0.50;56.01
8253;BME280;61313;48.396;10.008;2024-01-16T02:34:41;95603.47;;;-0.61;56.16
8253;BME280;61313;48.396;10.008;2024-01-16T02:37:07;95611.19;;;-0.58;55.87
8253;BME280;61313;48.396;10.008;2024-01-16T02:39:33;95611.28;;;-0.68;55.82
8253;BME280;61313;48.396;10.008;2024-01-16T02:41:58;95604.34;;;-0.62;55.84
8253;BME280;61313;48.396;10.008;2024-01-16T02:44:23;95605.34;;;-0.73;56.06
8253;BME280;61313;48.396;10.008;2024-01-16T02:46:49;95601.03;;;-0.72;56.03
8253;BME280;61313;48.396;10.008;2024-01-16T02:49:14;95604.72;;;-0.92;56.18
8253;BME280;61313;48.396;10.008;2024-01-16T02:51:40;95602.84;;;-0.80;55.77
8253;BME280;61313;48.396;10.008;2024-01-16T02:54:07;95600.31;;;-0.82;55.70
8253;BME280;61313;48.396;10.008;2024-01-16T02:56:33;95605.34;;;-0.74;55.59
8253;BME280;61313;48.396;10.008;2024-01-16T02:58:58;95595.78;;;-0.65;55.24
8253;BME280;61313;48.396;10.008;2024-01-16T03:01:24;95605.31;;;-0.71;55.52
8253;BME280;61313;48.396;10.008;2024-01-16T03:03:49;95603.84;;;-0.92;55.82
8253;BME280;61313;48.396;10.008;2024-01-16T03:06:24;95606.47;;;-0.94;55.90
8253;BME280;61313;48.396;10.008;2024-01-16T03:08:50;95600.53;;;-1.00;55.80
8253;BME280;61313;48.396;10.008;2024-01-16T03:11:16;95603.69;;;-0.77;54.76
8253;BME280;61313;48.396;10.008;2024-01-16T03:13:42;95608.03;;;-0.82;55.20
8253;BME280;61313;48.396;10.008;2024-01-16T03:16:09;95608.91;;;-0.83;54.72
8253;BME280;61313;48.396;10.008;2024-01-16T03:18:35;95614.25;;;-0.98;55.51
8253;BME280;61313;48.396;10.008;2024-01-16T03:21:01;95611.91;;;-1.21;56.11
8253;BME280;61313;48.396;10.008;2024-01-16T03:23:26;95614.41;;;-1.12;55.59
8253;BME280;61313;48.396;10.008;2024-01-16T03:25:51;95612.66;;;-1.12;55.91
8253;BME280;61313;48.396;10.008;2024-01-16T03:28:17;95605.94;;;-1.22;56.68
8253;BME280;61313;48.396;10.008;2024-01-16T03:30:43;95605.78;;;-1.10;55.87
8253;BME280;61313;48.396;10.008;2024-01-16T03:33:08;95607.78;;;-1.36;56.73
8253;BME280;61313;48.396;10.008;2024-01-16T03:35:34;95604.31;;;-1.32;56.77
8253;BME280;61313;48.396;10.008;2024-01-16T03:37:59;95612.09;;;-1.38;56.89
8253;BME280;61313;48.396;10.008;2024-01-16T03:40:25;95621.41;;;-1.28;56.63
8253;BME280;61313;48.396;10.008;2024-01-16T03:42:50;95630.03;;;-1.29;56.62
8253;BME280;61313;48.396;10.008;2024-01-16T03:45:16;95623.09;;;-1.24;55.94
8253;BME280;61313;48.396;10.008;2024-01-16T03:47:41;95627.59;;;-1.43;56.69
8253;BME280;61313;48.396;10.008;2024-01-16T03:50:06;95633.50;;;-1.33;56.45
8253;BME280;61313;48.396;10.008;2024-01-16T03:52:32;95632.66;;;-1.34;56.15
8253;BME280;61313;48.396;10.008;2024-01-16T03:54:57;95636.22;;;-1.50;57.00
8253;BME280;61313;48.396;10.008;2024-01-16T03:57:23;95630.13;;;-1.38;56.45
8253;BME280;61313;48.396;10.008;2024-01-16T03:59:49;95631.97;;;-1.53;56.92
8253;BME280;61313;48.396;10.008;2024-01-16T04:02:15;95634.41;;;-1.40;56.34
8253;BME280;61313;48.396;10.008;2024-01-16T04:04:40;95624.38;;;-1.65;56.38
8253;BME280;61313;48.396;10.008;2024-01-16T04:07:06;95633.66;;;-1.52;55.91
8253;BME280;61313;48.396;10.008;2024-01-16T04:09:31;95632.00;;;-1.57;56.56
8253;BME280;61313;48.396;10.008;2024-01-16T04:11:56;95628.47;;;-1.47;56.56
8253;BME280;61313;48.396;10.008;2024-01-16T04:14:22;95633.72;;;-1.58;56.98
8253;BME280;61313;48.396;10.008;2024-01-16T04:16:47;95625.25;;;-1.69;57.14
8253;BME280;61313;48.396;10.008;2024-01-16T04:19:12;95643.09;;;-1.54;56.46
8253;BME280;61313;48.396;10.008;2024-01-16T04:21:38;95638.09;;;-1.67;56.82
8253;BME280;61313;48.396;10.008;2024-01-16T04:24:03;95642.69;;;-2.08;57.92
8253;BME280;61313;48.396;10.008;2024-01-16T04:26:29;95640.69;;;-1.67;57.91
8253;BME280;61313;48.396;10.008;2024-01-16T04:28:54;95639.94;;;-1.85;57.79
8253;BME280;61313;48.396;10.008;2024-01-16T04:31:19;95637.22;;;-1.65;56.92
8253;BME280;61313;48.396;10.008;2024-01-16T04:33:47;95636.41;;;-1.72;57.69
8253;BME280;61313;48.396;10.008;2024-01-16T04:36:13;95639.81;;;-1.66;57.33
8253;BME280;61313;48.396;10.008;2024-01-16T04:38:38;95642.44;;;-1.74;57.01
8253;BME280;61313;48.396;10.008;2024-01-16T04:41:03;95642.41;;;-1.71;57.13
8253;BME280;61313;48.396;10.008;2024-01-16T04:43:29;95643.25;;;-1.69;57.11
8253;BME280;61313;48.396;10.008;2024-01-16T04:45:55;95645.97;;;-1.87;57.28
8253;BME280;61313;48.396;10.008;2024-01-16T04:48:20;95649.38;;;-1.85;57.28
8253;BME280;61313;48.396;10.008;2024-01-16T04:50:45;95645.94;;;-1.81;56.70
8253;BME280;61313;48.396;10.008;2024-01-16T04:53:11;95646.84;;;-1.88;56.98
8253;BME280;61313;48.396;10.008;2024-01-16T04:55:36;95649.38;;;-1.87;57.10
8253;BME280;61313;48.396;10.008;2024-01-16T04:58:02;95646.88;;;-1.96;56.95
8253;BME280;61313;48.396;10.008;2024-01-16T05:00:27;95664.81;;;-1.84;57.22
8253;BME280;61313;48.396;10.008;2024-01-16T05:02:53;95663.19;;;-1.97;57.03
8253;BME280;61313;48.396;10.008;2024-01-16T05:05:18;95663.19;;;-1.99;56.84
8253;BME280;61313;48.396;10.008;2024-01-16T05:07:44;95662.31;;;-1.93;56.38
8253;BME280;61313;48.396;10.008;2024-01-16T05:10:10;95675.25;;;-2.05;57.03
8253;BME280;61313;48.396;10.008;2024-01-16T05:12:38;95656.47;;;-2.20;57.92
8253;BME280;61313;48.396;10.008;2024-01-16T05:15:04;95659.88;;;-2.15;57.06
8253;BME280;61313;48.396;10.008;2024-01-16T05:17:30;95651.25;;;-2.03;57.27
8253;BME280;61313;48.396;10.008;2024-01-16T05:19:55;95654.66;;;-2.04;57.13
8253;BME280;61313;48.396;10.008;2024-01-16T05:22:21;95648.66;;;-2.04;57.51
8253;BME280;61313;48.396;10.008;2024-01-16T05:24:47;95651.25;;;-2.06;57.33
8253;BME280;61313;48.396;10.008;2024-01-16T05:27:12;95649.50;;;-1.98;56.93
8253;BME280;61313;48.396;10.008;2024-01-16T05:29:41;95655.53;;;-2.05;56.82
8253;BME280;61313;48.396;10.008;2024-01-16T05:32:06;95642.84;;;-2.26;57.14
8253;BME280;61313;48.396;10.008;2024-01-16T05:34:32;95646.13;;;-2.09;57.40
8253;BME280;61313;48.396;10.008;2024-01-16T05:36:57;95656.38;;;-2.04;57.71
8253;BME280;61313;48.396;10.008;2024-01-16T05:39:22;95656.41;;;-2.07;57.21
8253;BME280;61313;48.396;10.008;2024-01-16T05:41:48;95646.97;;;-2.05;57.04
8253;BME280;61313;48.396;10.008;2024-01-16T05:44:13;95649.59;;;-2.10;56.99
8253;BME280;61313;48.396;10.008;2024-01-16T05:46:38;95646.06;;;-2.01;57.39
8253;BME280;61313;48.396;10.008;2024-01-16T05:49:04;95638.44;;;-2.12;56.49
8253;BME280;61313;48.396;10.008;2024-01-16T05:51:29;95636.69;;;-2.08;57.20
8253;BME280;61313;48.396;10.008;2024-01-16T05:53:55;95634.22;;;-2.22;57.41
8253;BME280;61313;48.396;10.008;2024-01-16T05:56:21;95634.19;;;-2.16;57.38
8253;BME280;61313;48.396;10.008;2024-01-16T05:58:46;95630.72;;;-2.10;56.19
8253;BME280;61313;48.396;10.008;2024-01-16T06:01:11;95626.47;;;-2.16;56.13
8253;BME280;61313;48.396;10.008;2024-01-16T06:03:40;95622.22;;;-2.17;57.41
8253;BME280;61313;48.396;10.008;2024-01-16T06:06:06;95621.34;;;-2.16;57.36
8253;BME280;61313;48.396;10.008;2024-01-16T06:08:32;95621.34;;;-2.15;56.08
8253;BME280;61313;48.396;10.008;2024-01-16T06:10:57;95624.78;;;-2.17;57.38
8253;BME280;61313;48.396;10.008;2024-01-16T06:13:23;95624.81;;;-2.25;58.12
8253;BME280;61313;48.396;10.008;2024-01-16T06:15:48;95623.13;;;-2.26;57.46
8253;BME280;61313;48.396;10.008;2024-01-16T06:18:14;95618.00;;;-2.32;58.12
8253;BME280;61313;48.396;10.008;2024-01-16T06:20:39;95618.84;;;-2.28;57.61
8253;BME280;61313;48.396;10.008;2024-01-16T06:23:05;95616.31;;;-2.31;58.40
8253;BME280;61313;48.396;10.008;2024-01-16T06:25:30;95620.59;;;-2.37;58.39
8253;BME280;61313;48.396;10.008;2024-01-16T06:27:55;95618.06;;;-2.38;58.82
8253;BME280;61313;48.396;10.008;2024-01-16T06:30:21;95623.19;;;-2.33;57.94
8253;BME280;61313;48.396;10.008;2024-01-16T06:32:48;95620.56;;;-2.30;58.51
8253;BME280;61313;48.396;10.008;2024-01-16T06:35:15;95622.28;;;-2.29;58.32
8253;BME280;61313;48.396;10.008;2024-01-16T06:37:40;95629.94;;;-2.23;58.74
8253;BME280;61313;48.396;10.008;2024-01-16T06:40:06;95628.19;;;-2.18;59.08
8253;BME280;61313;48.396;10.008;2024-01-16T06:42:32;95628.94;;;-2.04;58.60
8253;BME280;61313;48.396;10.008;2024-01-16T06:44:57;95631.47;;;-1.93;57.67
8253;BME280;61313;48.396;10.008;2024-01-16T06:47:22;95635.78;;;-2.00;57.42
8253;BME280;61313;48.396;10.008;2024-01-16T06:49:49;95639.28;;;-2.11;57.73
8253;BME280;61313;48.396;10.008;2024-01-16T06:52:14;95635.00;;;-2.09;57.50
8253;BME280;61313;48.396;10.008;2024-01-16T06:54:39;95639.28;;;-2.13;57.93
8253;BME280;61313;48.396;10.008;2024-01-16T06:57:05;95640.09;;;-2.08;58.33
8253;BME280;61313;48.396;10.008;2024-01-16T06:59:30;95646.16;;;-2.12;57.06
8253;BME280;61313;48.396;10.008;2024-01-16T07:01:56;95649.63;;;-2.22;57.96
8253;BME280;61313;48.396;10.008;2024-01-16T07:04:21;95659.06;;;-2.23;57.98
8253;BME280;61313;48.396;10.008;2024-01-16T07:06:46;95649.53;;;-2.05;56.93
8253;BME280;61313;48.396;10.008;2024-01-16T07:09:12;95649.53;;;-2.08;57.47
8253;BME280;61313;48.396;10.008;2024-01-16T07:11:38;95657.28;;;-2.10;58.14
8253;BME280;61313;48.396;10.008;2024-01-16T07:14:07;95655.56;;;-2.09;57.06
8253;BME280;61313;48.396;10.008;2024-01-16T07:16:33;95656.34;;;-1.98;56.80
8253;BME280;61313;48.396;10.008;2024-01-16T07:18:58;95657.22;;;-2.01;57.18
8253;BME280;61313;48.396;10.008;2024-01-16T07:21:24;95658.88;;;-1.89;57.93
8253;BME280;61313;48.396;10.008;2024-01-16T07:23:49;95648.56;;;-1.90;56.94
8253;BME280;61313;48.396;10.008;2024-01-16T07:26:15;95653.66;;;-1.84;56.82
8253;BME280;61313;48.396;10.008;2024-01-16T07:28:41;95651.16;;;-1.90;56.93
8253;BME280;61313;48.396;10.008;2024-01-16T07:31:07;95647.63;;;-1.80;57.35
8253;BME280;61313;48.396;10.008;2024-01-16T07:33:34;95647.66;;;-1.83;57.17
8253;BME280;61313;48.396;10.008;2024-01-16T07:36:00;95635.53;;;-1.67;55.85
8253;BME280;61313;48.396;10.008;2024-01-16T07:38:25;95633.03;;;-1.80;55.68
8253;BME280;61313;48.396;10.008;2024-01-16T07:40:51;95638.16;;;-1.75;56.00
8253;BME280;61313;48.396;10.008;2024-01-16T07:43:16;95625.31;;;-1.80;56.17
8253;BME280;61313;48.396;10.008;2024-01-16T07:45:41;95627.03;;;-1.77;56.04
8253;BME280;61313;48.396;10.008;2024-01-16T07:48:07;95629.69;;;-1.89;55.95
8253;BME280;61313;48.396;10.008;2024-01-16T07:50:33;95633.06;;;-1.81;57.09
8253;BME280;61313;48.396;10.008;2024-01-16T07:52:59;95639.97;;;-1.89;56.89
8253;BME280;61313;48.396;10.008;2024-01-16T07:55:24;95645.09;;;-1.82;56.97
8253;BME280;61313;48.396;10.008;2024-01-16T07:57:49;95632.19;;;-1.80;56.54
8253;BME280;61313;48.396;10.008;2024-01-16T08:00:15;95625.38;;;-1.81;56.01
8253;BME280;61313;48.396;10.008;2024-01-16T08:02:40;95627.13;;;-1.86;56.17
8253;BME280;61313;48.396;10.008;2024-01-16T08:05:07;95621.91;;;-1.79;56.78
8253;BME280;61313;48.396;10.008;2024-01-16T08:07:32;95615.06;;;-1.83;56.38
8253;BME280;61313;48.396;10.008;2024-01-16T08:09:58;95621.06;;;-1.81;56.19
8253;BME280;61313;48.396;10.008;2024-01-16T08:12:23;95620.28;;;-1.89;56.60
8253;BME280;61313;48.396;10.008;2024-01-16T08:14:48;95618.66;;;-2.01;56.54
8253;BME280;61313;48.396;10.008;2024-01-16T08:17:14;95622.91;;;-1.97;57.10
8253;BME280;61313;48.396;10.008;2024-01-16T08:19:40;95623.75;;;-1.95;57.19
8253;BME280;61313;48.396;10.008;2024-01-16T08:22:05;95627.06;;;-1.79;56.46
8253;BME280;61313;48.396;10.008;2024-01-16T08:24:31;95631.28;;;-1.72;56.93
8253;BME280;61313;48.396;10.008;2024-01-16T08:26:57;95637.09;;;-1.51;56.63
8253;BME280;61313;48.396;10.008;2024-01-16T08:29:23;95639.66;;;-1.48;56.55
8253;BME280;61313;48.396;10.008;2024-01-16T08:31:49;95634.41;;;-1.42;56.36
8253;BME280;61313;48.396;10.008;2024-01-16T08:34:17;95641.34;;;-1.47;55.98
8253;BME280;61313;48.396;10.008;2024-01-16T08:36:43;95642.84;;;-1.26;55.72
8253;BME280;61313;48.396;10.008;2024-01-16T08:39:09;95642.97;;;-1.38;55.51
8253;BME280;61313;48.396;10.008;2024-01-16T08:41:35;95633.34;;;-1.18;55.48
8253;BME280;61313;48.396;10.008;2024-01-16T08:44:01;95634.94;;;-1.09;55.65
8253;BME280;61313;48.396;10.008;2024-01-16T08:46:26;95632.31;;;-1.04;55.79
8253;BME280;61313;48.396;10.008;2024-01-16T08:48:51;95636.53;;;-0.94;54.75
8253;BME280;61313;48.396;10.008;2024-01-16T08:51:17;95636.31;;;-0.79;54.57
8253;BME280;61313;48.396;10.008;2024-01-16T08:53:42;95628.66;;;-0.83;54.29
8253;BME280;61313;48.396;10.008;2024-01-16T08:56:08;95628.53;;;-0.74;54.17
8253;BME280;61313;48.396;10.008;2024-01-16T08:58:34;95628.47;;;-0.68;53.85
8253;BME280;61313;48.396;10.008;2024-01-16T09:01:04;95617.25;;;-0.64;53.60
8253;BME280;61313;48.396;10.008;2024-01-16T09:03:33;95618.91;;;-0.58;53.86
8253;BME280;61313;48.396;10.008;2024-01-16T09:05:59;95612.13;;;-0.67;54.37
8253;BME280;61313;48.396;10.008;2024-01-16T09:08:26;95609.38;;;-0.53;53.78
8253;BME280;61313;48.396;10.008;2024-01-16T09:10:52;95603.38;;;-0.54;53.94
8253;BME280;61313;48.396;10.008;2024-01-16T09:13:18;95599.88;;;-0.48;54.06
8253;BME280;61313;48.396;10.008;2024-01-16T09:15:43;95593.16;;;-0.60;53.95
8253;BME280;61313;48.396;10.008;2024-01-16T09:18:08;95596.44;;;-0.49;54.79
8253;BME280;61313;48.396;10.008;2024-01-16T09:20:34;95595.66;;;-0.54;54.08
8253;BME280;61313;48.396;10.008;2024-01-16T09:22:59;95604.09;;;-0.43;54.07
8253;BME280;61313;48.396;10.008;2024-01-16T09:25:25;95594.66;;;-0.45;53.90
8253;BME280;61313;48.396;10.008;2024-01-16T09:27:52;95600.44;;;-0.28;53.99
8253;BME280;61313;48.396;10.008;2024-01-16T09:30:18;95612.25;;;-0.14;53.95
8253;BME280;61313;48.396;10.008;2024-01-16T09:32:44;95606.94;;;-0.04;52.54
8253;BME280;61313;48.396;10.008;2024-01-16T09:35:10;95599.16;;;-0.01;52.88
8253;BME280;61313;48.396;10.008;2024-01-16T09:37:36;95606.53;;;0.23;53.13
8253;BME280;61313;48.396;10.008;2024-01-16T09:40:01;95606.38;;;0.32;52.77
8253;BME280;61313;48.396;10.008;2024-01-16T09:42:28;95606.53;;;0.23;52.19
8253;BME280;61313;48.396;10.008;2024-01-16T09:44:55;95601.59;;;0.09;53.38
8253;BME280;61313;48.396;10.008;2024-01-16T09:47:20;95607.53;;;0.15;52.36
8253;BME280;61313;48.396;10.008;2024-01-16T09:49:46;95606.25;;;-0.13;52.98
8253;BME280;61313;48.396;10.008;2024-01-16T09:52:13;95596.22;;;0.21;53.36
8253;BME280;61313;48.396;10.008;2024-01-16T09:54:39;95587.09;;;0.53;53.09
8253;BME280;61313;48.396;10.008;2024-01-16T09:57:06;95589.84;;;0.45;51.84
8253;BME280;61313;48.396;10.008;2024-01-16T09:59:32;95589.59;;;0.06;52.75
8253;BME280;61313;48.396;10.008;2024-01-16T10:02:01;95580.75;;;0.23;52.76
8253;BME280;61313;48.396;10.008;2024-01-16T10:04:31;95579.97;;;0.67;51.77
8253;BME280;61313;48.396;10.008;2024-01-16T10:06:57;95567.38;;;0.94;51.59
8253;BME280;61313;48.396;10.008;2024-01-16T10:09:23;95579.09;;;1.12;51.03
8253;BME280;61313;48.396;10.008;2024-01-16T10:11:50;95574.94;;;1.04;51.29
8253;BME280;61313;48.396;10.008;2024-01-16T10:14:17;95582.19;;;1.29;50.82
8253;BME280;61313;48.396;10.008;2024-01-16T10:16:59;95580.13;;;1.45;49.95
8253;BME280;61313;48.396;10.008;2024-01-16T10:19:28;95569.03;;;1.40;50.48
8253;BME280;61313;48.396;10.008;2024-01-16T10:22:02;95573.41;;;1.38;50.62
8253;BME280;61313;48.396;10.008;2024-01-16T10:24:28;95576.81;;;1.38;50.85
8253;BME280;61313;48.396;10.008;2024-01-16T10:27:01;95577.94;;;0.83;51.06
8253;BME280;61313;48.396;10.008;2024-01-16T10:29:28;95584.84;;;0.34;52.52
8253;BME280;61313;48.396;10.008;2024-01-16T10:31:53;95579.53;;;0.44;52.71
8253;BME280;61313;48.396;10.008;2024-01-16T10:34:20;95568.44;;;0.37;53.26
8253;BME280;61313;48.396;10.008;2024-01-16T10:36:46;95577.59;;;0.55;52.36
8253;BME280;61313;48.396;10.008;2024-01-16T10:39:13;95580.88;;;0.65;53.10
8253;BME280;61313;48.396;10.008;2024-01-16T10:41:39;95581.63;;;1.15;51.88
8253;BME280;61313;48.396;10.008;2024-01-16T10:44:05;95583.50;;;0.61;52.11
8253;BME280;61313;48.396;10.008;2024-01-16T10:46:34;95575.78;;;0.60;52.43
8253;BME280;61313;48.396;10.008;2024-01-16T10:49:02;95572.72;;;0.86;51.82
8253;BME280;61313;48.396;10.008;2024-01-16T10:51:29;95564.34;;;1.57;51.21
8253;BME280;61313;48.396;10.008;2024-01-16T10:54:05;95550.81;;;2.19;48.86
8253;BME280;61313;48.396;10.008;2024-01-16T10:56:36;95537.81;;;2.55;48.03
8253;BME280;61313;48.396;10.008;2024-01-16T11:01:43;95535.91;;;2.29;47.74
8253;BME280;61313;48.396;10.008;2024-01-16T11:04:11;95534.72;;;1.33;49.45
8253;BME280;61313;48.396;10.008;2024-01-16T11:06:38;95535.69;;;1.66;49.59
8253;BME280;61313;48.396;10.008;2024-01-16T11:09:07;95533.47;;;2.23;48.74
8253;BME280;61313;48.396;10.008;2024-01-16T11:11:33;95529.63;;;2.39;47.91
8253;BME280;61313;48.396;10.008;2024-01-16T11:14:02;95526.09;;;2.74;47.51
8253;BME280;61313;48.396;10.008;2024-01-16T11:16:28;95528.97;;;2.95;46.42
8253;BME280;61313;48.396;10.008;2024-01-16T11:18:57;95527.41;;;2.57;47.69
8253;BME280;61313;48.396;10.008;2024-01-16T11:21:22;95530.19;;;2.16;48.24
8253;BME280;61313;48.396;10.008;2024-01-16T11:23:49;95532.31;;;1.63;49.36
8253;BME280;61313;48.396;10.008;2024-01-16T11:28:49;95519.59;;;1.91;49.81
8253;BME280;61313;48.396;10.008;2024-01-16T11:31:31;95521.06;;;2.01;49.29
8253;BME280;61313;48.396;10.008;2024-01-16T11:33:57;95518.81;;;1.87;49.07
8253;BME280;61313;48.396;10.008;2024-01-16T11:36:54;95511.19;;;1.81;49.67
8253;BME280;61313;48.396;10.008;2024-01-16T11:39:26;95511.06;;;2.22;48.32
8253;BME280;61313;48.396;10.008;2024-01-16T11:41:56;95491.97;;;3.20;46.86
8253;BME280;61313;48.396;10.008;2024-01-16T11:47:05;95496.94;;;2.66;46.02
8253;BME280;61313;48.396;10.008;2024-01-16T11:49:31;95486.16;;;3.41;44.53
8253;BME280;61313;48.396;10.008;2024-01-16T11:51:59;95478.13;;;3.49;44.27
8253;BME280;61313;48.396;10.008;2024-01-16T11:54:25;95471.84;;;3.56;43.88
8253;BME280;61313;48.396;10.008;2024-01-16T11:59:57;95482.75;;;2.80;45.52
8253;BME280;61313;48.396;10.008;2024-01-16T12:02:29;95473.94;;;2.85;45.19
8253;BME280;61313;48.396;10.008;2024-01-16T12:04:55;95476.94;;;2.71;45.20
8253;BME280;61313;48.396;10.008;2024-01-16T12:07:22;95477.16;;;1.98;47.46
8253;BME280;61313;48.396;10.008;2024-01-16T12:09:48;95464.91;;;2.38;46.54
8253;BME280;61313;48.396;10.008;2024-01-16T12:12:15;95456.44;;;2.64;46.22
8253;BME280;61313;48.396;10.008;2024-01-16T12:14:40;95462.47;;;2.31;46.13
8253;BME280;61313;48.396;10.008;2024-01-16T12:17:12;95451.47;;;2.56;45.86
8253;BME280;61313;48.396;10.008;2024-01-16T12:19:39;95442.19;;;2.49;45.85
8253;BME280;61313;48.396;10.008;2024-01-16T12:22:09;95434.50;;;3.62;44.41
8253;BME280;61313;48.396;10.008;2024-01-16T12:24:36;95424.78;;;3.93;42.13
8253;BME280;61313;48.396;10.008;2024-01-16T12:27:02;95416.13;;;3.68;42.27
8253;BME280;61313;48.396;10.008;2024-01-16T12:29:29;95417.97;;;3.91;41.89
8253;BME280;61313;48.396;10.008;2024-01-16T12:32:10;95405.81;;;4.41;41.60
8253;BME280;61313;48.396;10.008;2024-01-16T12:34:47;95403.22;;;3.91;42.13
8253;BME280;61313;48.396;10.008;2024-01-16T12:37:13;95408.63;;;3.58;44.40
8253;BME280;61313;48.396;10.008;2024-01-16T12:39:40;95402.59;;;4.10;42.64
8253;BME280;61313;48.396;10.008;2024-01-16T12:42:08;95406.06;;;3.30;43.25
8253;BME280;61313;48.396;10.008;2024-01-16T12:44:35;95400.59;;;3.39;42.81
8253;BME280;61313;48.396;10.008;2024-01-16T12:47:01;95392.09;;;3.36;43.71
8253;BME280;61313;48.396;10.008;2024-01-16T12:49:27;95379.03;;;4.16;41.63
8253;BME280;61313;48.396;10.008;2024-01-16T12:54:46;95380.44;;;3.74;40.90
8253;BME280;61313;48.396;10.008;2024-01-16T12:57:16;95381.84;;;4.10;40.88
8253;BME280;61313;48.396;10.008;2024-01-16T12:59:42;95366.28;;;4.33;40.60
8253;BME280;61313;48.396;10.008;2024-01-16T13:02:07;95360.66;;;4.69;39.60
8253;BME280;61313;48.396;10.008;2024-01-16T13:04:33;95356.88;;;4.31;39.67
8253;BME280;61313;48.396;10.008;2024-01-16T13:07:04;95362.44;;;3.70;41.83
8253;BME280;61313;48.396;10.008;2024-01-16T13:09:30;95362.63;;;3.38;42.54
8253;BME280;61313;48.396;10.008;2024-01-16T13:11:57;95363.34;;;3.42;42.82
8253;BME280;61313;48.396;10.008;2024-01-16T13:14:24;95365.94;;;3.69;41.01
8253;BME280;61313;48.396;10.008;2024-01-16T13:16:51;95357.22;;;3.45;41.72